createdAt,value
2018-11-22T12:18:11.558Z,14.97
2018-11-22T12:20:40.551Z,14.40
2018-11-22T12:23:10.579Z,13.77
2018-11-22T12:25:39.599Z,14.20
2018-11-22T12:28:08.619Z,13.73
2018-11-22T12:30:37.694Z,13.50
2018-11-22T12:33:22.891Z,13.17
2018-11-22T12:35:57.424Z,13.33
2018-11-22T12:38:34.272Z,13.53
2018-11-22T12:41:03.232Z,13.67
2018-11-22T12:43:32.311Z,14.30
2018-11-22T12:46:01.862Z,14.30
2018-11-22T12:48:30.962Z,15.00
2018-11-22T12:51:00.409Z,13.63
2018-11-22T12:53:29.677Z,14.80
2018-11-22T12:55:58.791Z,14.00
2018-11-22T12:58:28.339Z,14.30
2018-11-22T13:00:58.296Z,14.40
2018-11-22T13:03:27.484Z,15.27
2018-11-22T13:05:56.808Z,13.37
2018-11-22T13:08:26.054Z,14.30
2018-11-22T13:10:55.460Z,14.53
2018-11-22T13:13:24.850Z,14.63
2018-11-22T13:15:53.991Z,14.47
2018-11-22T13:18:22.971Z,14.60
2018-11-22T13:20:51.971Z,14.87
2018-11-22T13:23:21.722Z,14.53
2018-11-22T13:25:51.602Z,14.47
2018-11-22T13:28:20.652Z,14.27
2018-11-22T13:30:49.814Z,13.93
2018-11-22T13:33:18.829Z,14.70
2018-11-22T13:35:48.307Z,14.50
2018-11-22T13:38:17.373Z,15.13
2018-11-22T13:40:46.411Z,14.47
2018-11-22T13:43:16.210Z,15.13
2018-11-22T13:45:45.687Z,14.73
2018-11-22T13:48:15.612Z,14.87
2018-11-22T13:50:44.675Z,14.40
2018-11-22T13:53:13.675Z,15.57
2018-11-22T13:55:42.713Z,14.30
2018-11-22T13:58:11.799Z,14.20
2018-11-22T14:00:41.109Z,13.30
2018-11-22T14:03:10.819Z,13.27
2018-11-22T14:05:40.326Z,14.33
2018-11-22T14:08:09.682Z,14.20
2018-11-22T14:10:39.051Z,14.30
2018-11-22T14:13:08.083Z,15.47
2018-11-22T14:15:37.193Z,15.10
2018-11-22T14:18:06.843Z,14.30
2018-11-22T14:20:36.731Z,15.13
2018-11-22T14:23:06.255Z,15.53
2018-11-22T14:25:35.296Z,14.87
2018-11-22T14:28:04.515Z,15.40
2018-11-22T14:30:34.872Z,15.63
2018-11-22T14:33:04.364Z,16.57
2018-11-22T14:35:36.024Z,15.83
2018-11-22T14:38:05.906Z,15.50
2018-11-22T14:40:35.552Z,15.67
2018-11-22T14:43:04.763Z,16.03
2018-11-22T14:45:34.172Z,15.83
2018-11-22T14:48:04.464Z,15.40
2018-11-22T14:50:45.921Z,15.37
2018-11-22T14:53:18.595Z,15.53
2018-11-22T14:55:47.667Z,15.07
2018-11-22T14:58:16.727Z,16.60
2018-11-22T15:00:46.295Z,16.07
2018-11-22T15:03:15.585Z,15.40
2018-11-22T15:05:45.067Z,15.03
2018-11-22T15:08:14.400Z,15.50
2018-11-22T15:10:43.391Z,15.33
2018-11-22T15:13:12.928Z,15.63
2018-11-22T15:15:41.947Z,16.80
2018-11-22T15:18:10.975Z,16.30
2018-11-22T15:20:40.361Z,15.87
2018-11-22T15:23:09.840Z,16.83
2018-11-22T15:25:38.836Z,15.03
2018-11-22T15:28:07.895Z,14.40
2018-11-22T15:30:37.259Z,15.57
2018-11-22T15:33:06.612Z,16.70
2018-11-22T15:35:36.100Z,15.27
2018-11-22T15:38:08.477Z,15.00
2018-11-22T15:40:37.544Z,15.80
2018-11-22T15:43:06.886Z,16.27
2018-11-22T15:45:36.461Z,15.37
2018-11-22T15:48:06.338Z,16.53
2018-11-22T15:50:35.620Z,16.73
2018-11-22T15:53:05.466Z,16.10
2018-11-22T15:55:35.066Z,16.90
2018-11-22T16:17:37.168Z,17.87
2018-11-22T16:20:07.104Z,15.60
2018-11-22T16:22:36.416Z,16.00
2018-11-22T16:25:10.503Z,16.77
2018-11-22T16:27:39.680Z,16.63
2018-11-22T16:30:13.192Z,16.80
2018-11-22T16:32:42.814Z,16.27
2018-11-22T16:35:12.672Z,16.50
2018-11-22T16:37:41.559Z,16.00
2018-11-22T16:40:12.025Z,16.07
2018-11-22T16:42:43.381Z,15.83
2018-11-22T16:45:18.600Z,15.83
2018-11-22T16:47:47.921Z,17.43
2018-11-22T16:50:18.320Z,17.67
2018-11-22T16:52:47.453Z,15.87
2018-11-22T16:55:16.395Z,16.17
2018-11-22T16:57:46.836Z,14.90
2018-11-22T17:00:20.376Z,14.97
2018-11-22T17:02:50.575Z,15.97
2018-11-22T17:05:19.884Z,17.10
2018-11-22T17:07:49.235Z,15.87
2018-11-22T17:10:19.518Z,16.50
2018-11-22T17:12:49.915Z,14.93
2018-11-22T17:15:20.779Z,18.10
2018-11-22T17:17:51.075Z,17.30
2018-11-22T17:20:21.016Z,16.63
2018-11-22T17:22:51.023Z,18.33
2018-11-22T17:25:22.243Z,16.63
2018-11-22T17:27:52.504Z,16.63
2018-11-22T17:30:22.760Z,16.87
2018-11-22T17:32:51.651Z,18.43
2018-11-22T17:35:22.176Z,17.63
2018-11-22T17:37:51.951Z,18.23
2018-11-22T17:40:24.002Z,16.17
2018-11-22T17:42:53.537Z,17.43
2018-11-22T17:45:24.785Z,16.70
2018-11-22T17:47:53.595Z,18.17
2018-11-22T17:50:25.067Z,15.73
2018-11-22T17:52:54.450Z,16.40
2018-11-22T17:55:24.963Z,16.33
2018-11-22T17:57:53.947Z,18.10
2018-11-22T18:00:26.357Z,16.83
2018-11-22T18:02:56.666Z,16.70
2018-11-22T18:05:27.257Z,17.03
2018-11-22T18:07:54.932Z,16.77
2018-11-22T18:10:25.609Z,16.77
2018-11-22T18:12:54.876Z,20.33
2018-11-22T18:15:24.494Z,18.13
2018-11-22T18:17:54.603Z,18.20
2018-11-22T18:20:26.047Z,17.57
2018-11-22T18:22:55.883Z,17.67
2018-11-22T18:25:26.022Z,19.37
2018-11-22T18:27:55.251Z,18.93
2018-11-22T18:30:26.343Z,19.07
2018-11-22T18:32:56.647Z,17.17
2018-11-22T18:35:26.790Z,19.10
2018-11-22T18:37:55.827Z,18.93
2018-11-22T18:40:27.650Z,17.33
2018-11-22T18:42:57.861Z,19.33
2018-11-22T18:45:33.839Z,17.80
2018-11-22T18:48:03.512Z,19.73
2018-11-22T18:50:33.426Z,19.30
2018-11-22T18:53:02.639Z,19.87
2018-11-22T18:55:31.330Z,19.37
2018-11-22T18:58:00.422Z,19.13
2018-11-22T19:00:35.689Z,19.20
2018-11-22T19:03:09.409Z,19.70
2018-11-22T19:05:39.949Z,18.90
2018-11-22T19:08:08.663Z,19.40
2018-11-22T19:10:38.927Z,18.70
2018-11-22T19:13:08.649Z,19.57
2018-11-22T19:15:40.350Z,19.83
2018-11-22T19:18:11.128Z,19.23
2018-11-22T19:20:41.563Z,18.30
2018-11-22T19:23:10.722Z,19.67
2018-11-22T19:25:40.156Z,20.73
2018-11-22T19:28:09.759Z,19.63
2018-11-22T19:30:44.224Z,20.43
2018-11-22T19:33:14.440Z,21.30
2018-11-22T19:35:44.892Z,20.60
2018-11-22T19:38:14.224Z,21.63
2018-11-22T19:40:43.656Z,21.20
2018-11-22T19:43:13.146Z,21.07
2018-11-22T19:45:44.816Z,23.07
2018-11-22T19:48:13.919Z,21.33
2018-11-22T19:50:43.410Z,22.07
2018-11-22T19:53:13.453Z,22.50
2018-11-22T19:55:42.751Z,22.67
2018-11-22T19:58:13.817Z,21.57
2018-11-22T20:00:42.900Z,22.37
2018-11-22T20:03:13.704Z,21.70
2018-11-22T20:05:43.939Z,23.57
2018-11-22T20:08:14.901Z,22.97
2018-11-22T20:10:45.171Z,22.37
2018-11-22T20:13:13.891Z,21.80
2018-11-22T20:15:42.657Z,21.07
2018-11-22T20:18:11.771Z,20.87
2018-11-22T20:20:41.024Z,21.37
2018-11-22T20:23:10.279Z,21.97
2018-11-22T20:25:40.668Z,21.97
2018-11-22T20:28:09.735Z,20.30
2018-11-22T20:30:40.799Z,22.57
2018-11-22T20:33:09.904Z,20.70
2018-11-22T20:35:39.326Z,21.57
2018-11-22T20:38:08.611Z,22.97
2018-11-22T20:40:37.595Z,21.47
2018-11-22T20:43:06.803Z,22.77
2018-11-22T20:45:40.814Z,24.03
2018-11-22T20:48:06.280Z,22.80
2018-11-22T20:50:35.524Z,22.30
2018-11-22T20:53:04.360Z,22.17
2018-11-22T20:55:35.829Z,22.37
2018-11-22T20:58:05.499Z,24.57
2018-11-22T21:00:35.972Z,22.03
2018-11-22T21:03:06.306Z,23.20
2018-11-22T21:05:35.479Z,23.53
2018-11-22T21:08:04.068Z,21.63
2018-11-22T21:10:34.124Z,20.47
2018-11-22T21:13:03.599Z,20.30
2018-11-22T21:15:33.720Z,20.30
2018-11-22T21:18:04.024Z,19.63
2018-11-22T21:20:34.852Z,25.00
2018-11-22T21:23:04.168Z,22.43
2018-11-22T21:25:33.260Z,19.73
2018-11-22T21:28:02.012Z,19.17
2018-11-22T21:30:32.807Z,20.33
2018-11-22T21:33:02.611Z,20.93
2018-11-22T21:35:32.112Z,20.13
2018-11-22T21:38:02.535Z,20.93
2018-11-22T21:40:32.237Z,20.50
2018-11-22T21:43:01.247Z,18.40
2018-11-22T21:45:31.036Z,21.90
2018-11-22T21:47:59.728Z,24.93
2018-11-22T21:50:29.622Z,23.07
2018-11-22T21:52:58.634Z,22.27
2018-11-22T21:55:29.908Z,19.53
2018-11-22T21:58:00.949Z,18.77
2018-11-22T22:00:33.304Z,20.07
2018-11-22T22:03:03.843Z,20.10
2018-11-22T22:05:32.890Z,18.73
2018-11-22T22:08:01.944Z,22.10
2018-11-22T22:10:30.661Z,21.07
2018-11-22T22:12:59.806Z,18.70
2018-11-22T22:15:30.199Z,18.70
2018-11-22T22:17:59.364Z,17.60
2018-11-22T22:20:30.237Z,18.13
2018-11-22T22:22:59.833Z,18.80
2018-11-22T22:25:29.225Z,19.33
2018-11-22T22:27:58.579Z,20.17
2018-11-22T22:30:28.993Z,18.47
2018-11-22T22:32:59.533Z,18.50
2018-11-22T22:35:29.297Z,19.10
2018-11-22T22:37:58.340Z,18.53
2018-11-22T22:40:27.991Z,17.43
2018-11-22T22:42:57.547Z,19.07
2018-11-22T22:45:28.200Z,18.60
2018-11-22T22:47:56.866Z,18.53
2018-11-22T22:50:27.618Z,16.60
2018-11-22T22:52:57.938Z,17.30
2018-11-22T22:55:27.540Z,18.47
2018-11-22T22:57:56.555Z,17.87
2018-11-22T23:00:31.976Z,16.17
2018-11-22T23:03:02.077Z,22.87
2018-11-22T23:05:31.618Z,20.10
2018-11-22T23:08:00.888Z,24.53
2018-11-22T23:10:30.532Z,18.07
2018-11-22T23:12:59.920Z,17.20
2018-11-22T23:15:29.729Z,18.97
2018-11-22T23:17:59.172Z,20.23
2018-11-22T23:20:29.154Z,19.10
2018-11-22T23:23:03.366Z,19.40
2018-11-22T23:25:32.810Z,18.57
2018-11-22T23:28:01.991Z,20.90
2018-11-22T23:30:40.152Z,21.40
2018-11-22T23:33:09.573Z,17.50
2018-11-22T23:35:39.004Z,19.23
2018-11-22T23:38:08.025Z,20.03
2018-11-22T23:40:39.142Z,20.80
2018-11-22T23:43:08.311Z,18.77
2018-11-22T23:45:37.219Z,17.63
2018-11-22T23:48:05.889Z,18.13
2018-11-22T23:50:34.811Z,16.93
2018-11-22T23:53:05.200Z,18.93
2018-11-22T23:55:34.211Z,19.93
2018-11-22T23:58:02.792Z,16.73
